sensor_id;sensor_type;location;lat;lon;timestamp;pressure;altitude;pressure_sealevel;temperature;humidity
71149;BME280;59072;42.144;25.200;2022-09-23T00:01:15;100239.16;;;10.43;77.91
71149;BME280;59072;42.144;25.200;2022-09-23T00:03:43;100229.41;;;10.62;77.40
71149;BME280;59072;42.144;25.200;2022-09-23T00:06:21;100255.69;;;10.91;76.39
71149;BME280;59072;42.144;25.200;2022-09-23T00:08:47;100236.03;;;10.53;77.89
71149;BME280;59072;42.144;25.200;2022-09-23T00:11:18;100248.84;;;10.70;77.77
71149;BME280;59072;42.144;25.200;2022-09-23T00:13:46;100239.25;;;10.62;77.28
71149;BME280;59072;42.144;25.200;2022-09-23T00:16:16;100254.03;;;10.58;77.37
71149;BME280;59072;42.144;25.200;2022-09-23T00:18:42;100252.41;;;10.57;77.41
71149;BME280;59072;42.144;25.200;2022-09-23T00:21:11;100248.19;;;10.74;76.04
71149;BME280;59072;42.144;25.200;2022-09-23T00:23:37;100246.66;;;10.60;76.20
71149;BME280;59072;42.144;25.200;2022-09-23T00:26:05;100238.94;;;10.45;76.93
71149;BME280;59072;42.144;25.200;2022-09-23T00:28:32;100238.59;;;10.28;78.59
71149;BME280;59072;42.144;25.200;2022-09-23T00:31:07;100237.19;;;10.32;78.32
71149;BME280;59072;42.144;25.200;2022-09-23T00:33:33;100240.91;;;10.63;77.32
71149;BME280;59072;42.144;25.200;2022-09-23T00:36:00;100243.97;;;10.60;77.35
71149;BME280;59072;42.144;25.200;2022-09-23T00:38:26;100248.72;;;10.58;77.37
71149;BME280;59072;42.144;25.200;2022-09-23T00:40:52;100219.72;;;10.36;77.70
71149;BME280;59072;42.144;25.200;2022-09-23T00:43:18;100245.63;;;10.16;79.38
71149;BME280;59072;42.144;25.200;2022-09-23T00:45:48;100231.09;;;10.57;77.62
71149;BME280;59072;42.144;25.200;2022-09-23T00:48:19;100251.47;;;10.38;77.98
71149;BME280;59072;42.144;25.200;2022-09-23T00:50:49;100253.19;;;10.19;78.68
71149;BME280;59072;42.144;25.200;2022-09-23T00:53:19;100247.34;;;9.90;79.77
71149;BME280;59072;42.144;25.200;2022-09-23T00:55:54;100251.00;;;10.02;79.84
71149;BME280;59072;42.144;25.200;2022-09-23T00:58:24;100236.59;;;10.17;78.17
71149;BME280;59072;42.144;25.200;2022-09-23T01:00:51;100250.09;;;10.22;77.52
71149;BME280;59072;42.144;25.200;2022-09-23T01:03:17;100249.66;;;10.38;77.07
71149;BME280;59072;42.144;25.200;2022-09-23T01:05:44;100251.72;;;10.30;77.21
71149;BME280;59072;42.144;25.200;2022-09-23T01:08:11;100230.47;;;10.10;78.04
71149;BME280;59072;42.144;25.200;2022-09-23T01:19:10;100242.72;;;10.17;78.58
71149;BME280;59072;42.144;25.200;2022-09-23T01:21:54;100236.19;;;10.20;78.88
71149;BME280;59072;42.144;25.200;2022-09-23T01:24:38;100242.72;;;10.24;78.14
71149;BME280;59072;42.144;25.200;2022-09-23T01:30:10;100236.13;;;10.26;78.88
71149;BME280;59072;42.144;25.200;2022-09-23T01:35:31;100236.53;;;10.23;79.41
71149;BME280;59072;42.144;25.200;2022-09-23T01:46:51;100234.88;;;10.42;78.58
71149;BME280;59072;42.144;25.200;2022-09-23T01:51:50;100228.91;;;9.95;80.81
71149;BME280;59072;42.144;25.200;2022-09-23T01:57:10;100203.88;;;9.96;78.64
71149;BME280;59072;42.144;25.200;2022-09-23T01:59:45;100224.66;;;9.68;80.21
71149;BME280;59072;42.144;25.200;2022-09-23T02:02:16;100214.63;;;9.70;80.54
71149;BME280;59072;42.144;25.200;2022-09-23T02:04:54;100236.66;;;9.97;80.21
71149;BME280;59072;42.144;25.200;2022-09-23T02:07:43;100235.69;;;9.91;79.85
71149;BME280;59072;42.144;25.200;2022-09-23T02:12:36;100231.66;;;10.20;78.41
71149;BME280;59072;42.144;25.200;2022-09-23T02:15:07;100229.19;;;10.32;77.92
71149;BME280;59072;42.144;25.200;2022-09-23T02:18:00;100233.66;;;10.38;76.91
71149;BME280;59072;42.144;25.200;2022-09-23T02:20:29;100222.25;;;10.18;77.71
71149;BME280;59072;42.144;25.200;2022-09-23T02:23:10;100208.38;;;10.02;77.82
71149;BME280;59072;42.144;25.200;2022-09-23T02:28:11;100218.88;;;9.84;79.22
71149;BME280;59072;42.144;25.200;2022-09-23T02:30:49;100226.25;;;9.95;78.64
71149;BME280;59072;42.144;25.200;2022-09-23T02:33:35;100225.25;;;9.83;78.78
71149;BME280;59072;42.144;25.200;2022-09-23T02:36:14;100199.88;;;9.74;79.19
71149;BME280;59072;42.144;25.200;2022-09-23T02:38:48;100206.47;;;9.58;79.63
71149;BME280;59072;42.144;25.200;2022-09-23T02:41:24;100233.00;;;9.84;79.05
71149;BME280;59072;42.144;25.200;2022-09-23T02:46:29;100217.34;;;9.43;80.49
71149;BME280;59072;42.144;25.200;2022-09-23T02:51:27;100211.22;;;9.09;81.84
71149;BME280;59072;42.144;25.200;2022-09-23T02:54:03;100224.16;;;9.25;81.24
71149;BME280;59072;42.144;25.200;2022-09-23T02:56:29;100239.06;;;9.27;80.82
71149;BME280;59072;42.144;25.200;2022-09-23T02:58:55;100244.81;;;9.03;82.07
71149;BME280;59072;42.144;25.200;2022-09-23T03:01:43;100236.84;;;9.23;81.22
71149;BME280;59072;42.144;25.200;2022-09-23T03:07:03;100220.22;;;9.41;78.38
71149;BME280;59072;42.144;25.200;2022-09-23T03:09:38;100227.97;;;9.63;77.81
71149;BME280;59072;42.144;25.200;2022-09-23T03:12:18;100229.84;;;9.49;77.55
71149;BME280;59072;42.144;25.200;2022-09-23T03:14:57;100239.69;;;9.29;79.82
71149;BME280;59072;42.144;25.200;2022-09-23T03:20:40;100245.63;;;9.44;78.75
71149;BME280;59072;42.144;25.200;2022-09-23T03:23:09;100244.59;;;9.38;78.96
71149;BME280;59072;42.144;25.200;2022-09-23T03:25:39;100239.28;;;9.32;79.64
71149;BME280;59072;42.144;25.200;2022-09-23T03:28:09;100237.63;;;9.37;79.11
71149;BME280;59072;42.144;25.200;2022-09-23T03:30:35;100225.38;;;9.30;78.91
71149;BME280;59072;42.144;25.200;2022-09-23T03:33:03;100240.06;;;9.45;78.33
71149;BME280;59072;42.144;25.200;2022-09-23T03:35:31;100235.97;;;9.43;78.15
71149;BME280;59072;42.144;25.200;2022-09-23T03:38:18;100227.22;;;9.36;77.58
71149;BME280;59072;42.144;25.200;2022-09-23T03:40:49;100242.97;;;9.44;77.98
71149;BME280;59072;42.144;25.200;2022-09-23T03:43:17;100226.16;;;9.37;77.73
71149;BME280;59072;42.144;25.200;2022-09-23T03:45:44;100246.22;;;9.46;78.09
71149;BME280;59072;42.144;25.200;2022-09-23T03:48:10;100227.38;;;9.48;77.07
71149;BME280;59072;42.144;25.200;2022-09-23T03:50:35;100252.59;;;9.38;78.14
71149;BME280;59072;42.144;25.200;2022-09-23T03:53:01;100248.06;;;9.19;78.85
71149;BME280;59072;42.144;25.200;2022-09-23T03:55:26;100247.06;;;9.27;78.22
71149;BME280;59072;42.144;25.200;2022-09-23T03:57:52;100226.56;;;9.40;77.25
71149;BME280;59072;42.144;25.200;2022-09-23T04:00:19;100252.38;;;9.40;77.28
71149;BME280;59072;42.144;25.200;2022-09-23T04:02:45;100252.16;;;9.48;76.92
71149;BME280;59072;42.144;25.200;2022-09-23T04:05:12;100260.38;;;9.40;77.68
71149;BME280;59072;42.144;25.200;2022-09-23T04:07:38;100260.13;;;9.41;77.63
71149;BME280;59072;42.144;25.200;2022-09-23T04:10:04;100267.53;;;9.13;79.33
71149;BME280;59072;42.144;25.200;2022-09-23T04:12:30;100237.66;;;8.97;79.82
71149;BME280;59072;42.144;25.200;2022-09-23T04:14:55;100249.91;;;8.92;80.84
71149;BME280;59072;42.144;25.200;2022-09-23T04:17:21;100265.84;;;8.72;81.41
71149;BME280;59072;42.144;25.200;2022-09-23T04:19:46;100261.31;;;8.59;82.09
71149;BME280;59072;42.144;25.200;2022-09-23T04:22:12;100253.19;;;8.94;80.35
71149;BME280;59072;42.144;25.200;2022-09-23T04:24:37;100273.66;;;9.00;80.17
71149;BME280;59072;42.144;25.200;2022-09-23T04:27:03;100273.44;;;8.75;80.70
71149;BME280;59072;42.144;25.200;2022-09-23T04:29:28;100268.44;;;8.52;81.68
71149;BME280;59072;42.144;25.200;2022-09-23T04:31:54;100287.84;;;8.45;82.34
71149;BME280;59072;42.144;25.200;2022-09-23T04:34:20;100281.72;;;8.52;81.24
71149;BME280;59072;42.144;25.200;2022-09-23T04:36:46;100267.00;;;8.49;80.73
71149;BME280;59072;42.144;25.200;2022-09-23T04:39:13;100286.72;;;8.75;79.28
71149;BME280;59072;42.144;25.200;2022-09-23T04:41:43;100288.16;;;8.77;79.50
71149;BME280;59072;42.144;25.200;2022-09-23T04:44:10;100287.97;;;8.79;80.52
71149;BME280;59072;42.144;25.200;2022-09-23T04:46:36;100294.91;;;8.87;80.29
71149;BME280;59072;42.144;25.200;2022-09-23T04:49:04;100284.66;;;8.70;80.56
71149;BME280;59072;42.144;25.200;2022-09-23T04:51:29;100289.78;;;8.78;80.31
71149;BME280;59072;42.144;25.200;2022-09-23T04:53:55;100284.25;;;8.73;80.71
71149;BME280;59072;42.144;25.200;2022-09-23T04:56:25;100304.78;;;9.13;79.35
71149;BME280;59072;42.144;25.200;2022-09-23T04:58:51;100290.03;;;9.10;78.85
71149;BME280;59072;42.144;25.200;2022-09-23T05:03:44;100288.63;;;9.08;79.05
71149;BME280;59072;42.144;25.200;2022-09-23T05:06:12;100308.47;;;9.32;78.14
71149;BME280;59072;42.144;25.200;2022-09-23T05:08:44;100311.34;;;9.23;78.36
71149;BME280;59072;42.144;25.200;2022-09-23T05:11:10;100309.28;;;9.39;78.17
71149;BME280;59072;42.144;25.200;2022-09-23T05:13:36;100301.91;;;9.41;77.63
71149;BME280;59072;42.144;25.200;2022-09-23T05:16:06;100318.72;;;9.48;78.00
71149;BME280;59072;42.144;25.200;2022-09-23T05:18:37;100306.41;;;9.47;77.16
71149;BME280;59072;42.144;25.200;2022-09-23T05:21:05;100326.91;;;9.67;77.69
71149;BME280;59072;42.144;25.200;2022-09-23T05:23:31;100325.66;;;9.76;77.54
71149;BME280;59072;42.144;25.200;2022-09-23T05:25:59;100307.66;;;9.51;77.67
71149;BME280;59072;42.144;25.200;2022-09-23T05:28:25;100306.59;;;9.72;76.76
71149;BME280;59072;42.144;25.200;2022-09-23T05:30:52;100310.91;;;9.53;78.53
71149;BME280;59072;42.144;25.200;2022-09-23T05:33:18;100306.00;;;9.63;77.06
71149;BME280;59072;42.144;25.200;2022-09-23T05:35:47;100326.47;;;9.83;77.32
71149;BME280;59072;42.144;25.200;2022-09-23T05:38:13;100326.66;;;9.88;76.86
71149;BME280;59072;42.144;25.200;2022-09-23T05:40:41;100328.47;;;9.94;77.05
71149;BME280;59072;42.144;25.200;2022-09-23T05:43:07;100314.59;;;9.65;78.52
71149;BME280;59072;42.144;25.200;2022-09-23T05:45:33;100326.44;;;9.96;78.48
71149;BME280;59072;42.144;25.200;2022-09-23T05:47:58;100333.34;;;10.17;77.79
71149;BME280;59072;42.144;25.200;2022-09-23T05:50:23;100311.22;;;10.10;76.79
71149;BME280;59072;42.144;25.200;2022-09-23T05:52:49;100321.22;;;10.28;77.22
71149;BME280;59072;42.144;25.200;2022-09-23T05:55:14;100332.03;;;10.53;76.54
71149;BME280;59072;42.144;25.200;2022-09-23T05:57:40;100327.69;;;10.59;76.13
71149;BME280;59072;42.144;25.200;2022-09-23T06:00:06;100314.84;;;10.36;76.05
71149;BME280;59072;42.144;25.200;2022-09-23T06:02:32;100322.69;;;10.11;77.48
71149;BME280;59072;42.144;25.200;2022-09-23T06:04:58;100315.53;;;10.11;76.59
71149;BME280;59072;42.144;25.200;2022-09-23T06:07:23;100300.84;;;9.82;77.84
71149;BME280;59072;42.144;25.200;2022-09-23T06:09:49;100321.69;;;10.12;78.43
71149;BME280;59072;42.144;25.200;2022-09-23T06:12:14;100320.16;;;10.49;77.12
71149;BME280;59072;42.144;25.200;2022-09-23T06:14:40;100319.88;;;10.64;76.55
71149;BME280;59072;42.144;25.200;2022-09-23T06:17:05;100329.38;;;10.92;77.49
71149;BME280;59072;42.144;25.200;2022-09-23T06:19:31;100322.91;;;11.06;76.28
71149;BME280;59072;42.144;25.200;2022-09-23T06:21:56;100327.63;;;11.36;76.92
71149;BME280;59072;42.144;25.200;2022-09-23T06:24:22;100332.97;;;11.61;76.50
71149;BME280;59072;42.144;25.200;2022-09-23T06:26:47;100302.44;;;11.75;74.82
71149;BME280;59072;42.144;25.200;2022-09-23T06:29:13;100329.13;;;12.00;73.92
71149;BME280;59072;42.144;25.200;2022-09-23T06:31:38;100308.63;;;12.13;73.76
71149;BME280;59072;42.144;25.200;2022-09-23T06:34:05;100317.22;;;12.52;73.94
71149;BME280;59072;42.144;25.200;2022-09-23T06:36:31;100301.00;;;12.65;72.03
71149;BME280;59072;42.144;25.200;2022-09-23T06:38:57;100310.22;;;12.69;71.64
71149;BME280;59072;42.144;25.200;2022-09-23T06:41:22;100296.78;;;12.99;71.11
71149;BME280;59072;42.144;25.200;2022-09-23T06:43:48;100326.00;;;13.31;69.47
71149;BME280;59072;42.144;25.200;2022-09-23T06:46:14;100327.97;;;13.24;70.19
71149;BME280;59072;42.144;25.200;2022-09-23T06:48:40;100324.31;;;13.18;68.60
71149;BME280;59072;42.144;25.200;2022-09-23T06:51:10;100326.59;;;13.03;70.54
71149;BME280;59072;42.144;25.200;2022-09-23T06:53:37;100333.28;;;13.12;70.09
71149;BME280;59072;42.144;25.200;2022-09-23T06:56:08;100340.97;;;13.20;69.85
71149;BME280;59072;42.144;25.200;2022-09-23T06:58:36;100339.88;;;13.40;69.45
71149;BME280;59072;42.144;25.200;2022-09-23T07:01:12;100334.66;;;13.69;68.47
71149;BME280;59072;42.144;25.200;2022-09-23T07:03:40;100318.94;;;13.84;68.09
71149;BME280;59072;42.144;25.200;2022-09-23T07:06:06;100332.44;;;14.01;67.82
71149;BME280;59072;42.144;25.200;2022-09-23T07:08:32;100333.56;;;14.29;66.30
71149;BME280;59072;42.144;25.200;2022-09-23T07:11:00;100320.53;;;14.09;66.46
71149;BME280;59072;42.144;25.200;2022-09-23T07:13:27;100332.03;;;14.44;66.54
71149;BME280;59072;42.144;25.200;2022-09-23T07:15:57;100324.28;;;14.60;64.79
71149;BME280;59072;42.144;25.200;2022-09-23T07:18:25;100344.53;;;14.79;64.20
71149;BME280;59072;42.144;25.200;2022-09-23T07:20:51;100341.16;;;15.01;63.51
71149;BME280;59072;42.144;25.200;2022-09-23T07:23:17;100341.75;;;15.20;61.90
71149;BME280;59072;42.144;25.200;2022-09-23T07:25:43;100350.31;;;15.34;59.22
71149;BME280;59072;42.144;25.200;2022-09-23T07:28:10;100335.09;;;15.22;60.59
71149;BME280;59072;42.144;25.200;2022-09-23T07:30:37;100324.00;;;15.36;59.75
71149;BME280;59072;42.144;25.200;2022-09-23T07:33:03;100348.28;;;15.75;59.71
71149;BME280;59072;42.144;25.200;2022-09-23T07:35:29;100342.91;;;15.75;59.48
71149;BME280;59072;42.144;25.200;2022-09-23T07:37:54;100341.31;;;15.74;58.26
71149;BME280;59072;42.144;25.200;2022-09-23T07:40:20;100353.47;;;15.64;57.92
71149;BME280;59072;42.144;25.200;2022-09-23T07:42:45;100358.16;;;15.86;56.61
71149;BME280;59072;42.144;25.200;2022-09-23T07:45:12;100360.81;;;15.52;55.30
71149;BME280;59072;42.144;25.200;2022-09-23T07:47:37;100360.81;;;15.52;54.80
71149;BME280;59072;42.144;25.200;2022-09-23T07:50:05;100331.50;;;15.34;55.09
71149;BME280;59072;42.144;25.200;2022-09-23T07:52:34;100343.75;;;15.75;54.82
71149;BME280;59072;42.144;25.200;2022-09-23T07:55:03;100347.63;;;16.23;54.46
71149;BME280;59072;42.144;25.200;2022-09-23T07:57:30;100340.44;;;16.29;52.85
71149;BME280;59072;42.144;25.200;2022-09-23T07:59:55;100324.06;;;16.31;53.39
71149;BME280;59072;42.144;25.200;2022-09-23T08:02:21;100322.28;;;16.41;53.31
71149;BME280;59072;42.144;25.200;2022-09-23T08:04:47;100343.19;;;16.56;50.95
71149;BME280;59072;42.144;25.200;2022-09-23T08:07:13;100341.66;;;16.87;51.18
71149;BME280;59072;42.144;25.200;2022-09-23T08:09:41;100324.56;;;16.77;52.18
71149;BME280;59072;42.144;25.200;2022-09-23T08:12:09;100320.16;;;16.93;50.83
71149;BME280;59072;42.144;25.200;2022-09-23T08:14:34;100334.59;;;17.09;49.76
71149;BME280;59072;42.144;25.200;2022-09-23T08:17:00;100331.44;;;16.90;48.78
71149;BME280;59072;42.144;25.200;2022-09-23T08:19:25;100319.41;;;16.75;50.20
71149;BME280;59072;42.144;25.200;2022-09-23T08:21:51;100338.09;;;17.09;49.28
71149;BME280;59072;42.144;25.200;2022-09-23T08:24:18;100318.34;;;16.98;49.86
71149;BME280;59072;42.144;25.200;2022-09-23T08:26:45;100305.84;;;17.19;49.83
71149;BME280;59072;42.144;25.200;2022-09-23T08:29:12;100327.13;;;17.48;50.53
71149;BME280;59072;42.144;25.200;2022-09-23T08:31:38;100310.44;;;17.51;49.38
71149;BME280;59072;42.144;25.200;2022-09-23T08:34:04;100320.13;;;17.84;48.96
71149;BME280;59072;42.144;25.200;2022-09-23T08:36:30;100319.94;;;18.01;47.95
71149;BME280;59072;42.144;25.200;2022-09-23T08:38:56;100284.41;;;17.77;46.21
71149;BME280;59072;42.144;25.200;2022-09-23T08:47:08;100306.47;;;18.12;45.47
71149;BME280;59072;42.144;25.200;2022-09-23T08:49:47;100277.13;;;17.73;44.56
71149;BME280;59072;42.144;25.200;2022-09-23T08:55:11;100279.59;;;18.37;43.78
71149;BME280;59072;42.144;25.200;2022-09-23T09:03:30;100278.50;;;18.33;42.20
71149;BME280;59072;42.144;25.200;2022-09-23T09:05:58;100288.78;;;18.46;42.32
71149;BME280;59072;42.144;25.200;2022-09-23T09:08:27;100277.22;;;18.56;41.63
71149;BME280;59072;42.144;25.200;2022-09-23T09:10:56;100278.31;;;18.71;43.07
71149;BME280;59072;42.144;25.200;2022-09-23T09:13:24;100277.56;;;19.11;42.70
71149;BME280;59072;42.144;25.200;2022-09-23T09:18:54;100279.19;;;19.27;41.01
71149;BME280;59072;42.144;25.200;2022-09-23T09:21:33;100287.31;;;19.38;39.03
71149;BME280;59072;42.144;25.200;2022-09-23T09:24:08;100265.13;;;19.31;39.95
71149;BME280;59072;42.144;25.200;2022-09-23T09:26:40;100288.63;;;19.76;41.36
71149;BME280;59072;42.144;25.200;2022-09-23T09:29:26;100283.94;;;19.97;40.79
71149;BME280;59072;42.144;25.200;2022-09-23T09:31:53;100273.88;;;20.08;39.87
71149;BME280;59072;42.144;25.200;2022-09-23T09:34:34;100258.38;;;20.29;39.27
71149;BME280;59072;42.144;25.200;2022-09-23T09:37:32;100275.69;;;20.33;40.45
71149;BME280;59072;42.144;25.200;2022-09-23T09:40:00;100265.75;;;20.08;38.94
71149;BME280;59072;42.144;25.200;2022-09-23T09:42:32;100264.50;;;19.85;38.78
71149;BME280;59072;42.144;25.200;2022-09-23T09:45:03;100256.38;;;19.90;38.79
71149;BME280;59072;42.144;25.200;2022-09-23T09:47:55;100278.94;;;20.30;38.21
71149;BME280;59072;42.144;25.200;2022-09-23T09:50:46;100276.09;;;20.61;37.22
71149;BME280;59072;42.144;25.200;2022-09-23T09:56:09;100271.81;;;19.79;37.93
71149;BME280;59072;42.144;25.200;2022-09-23T09:58:59;100265.97;;;20.27;38.77
71149;BME280;59072;42.144;25.200;2022-09-23T10:01:30;100260.34;;;20.68;39.00
71149;BME280;59072;42.144;25.200;2022-09-23T10:03:57;100263.44;;;20.91;35.69
71149;BME280;59072;42.144;25.200;2022-09-23T10:06:27;100282.44;;;21.20;34.97
71149;BME280;59072;42.144;25.200;2022-09-23T10:11:38;100271.31;;;20.87;35.92
71149;BME280;59072;42.144;25.200;2022-09-23T10:16:35;100269.16;;;21.18;36.49
71149;BME280;59072;42.144;25.200;2022-09-23T10:19:02;100239.94;;;21.10;35.47
71149;BME280;59072;42.144;25.200;2022-09-23T10:21:34;100270.28;;;21.12;33.58
71149;BME280;59072;42.144;25.200;2022-09-23T10:24:03;100263.50;;;21.15;33.51
71149;BME280;59072;42.144;25.200;2022-09-23T10:26:41;100269.84;;;21.00;34.34
71149;BME280;59072;42.144;25.200;2022-09-23T10:29:29;100228.50;;;21.72;34.54
71149;BME280;59072;42.144;25.200;2022-09-23T10:34:44;100239.94;;;21.69;33.72
71149;BME280;59072;42.144;25.200;2022-09-23T10:37:17;100251.28;;;21.17;32.67
71149;BME280;59072;42.144;25.200;2022-09-23T10:39:44;100239.53;;;21.27;33.02
71149;BME280;59072;42.144;25.200;2022-09-23T10:45:38;100233.88;;;21.77;32.46
71149;BME280;59072;42.144;25.200;2022-09-23T10:50:54;100234.22;;;22.37;32.67
71149;BME280;59072;42.144;25.200;2022-09-23T10:53:57;100221.16;;;22.39;31.22
71149;BME280;59072;42.144;25.200;2022-09-23T10:56:39;100219.78;;;22.18;33.17
71149;BME280;59072;42.144;25.200;2022-09-23T10:59:12;100220.41;;;22.34;32.00
71149;BME280;59072;42.144;25.200;2022-09-23T11:02:16;100231.91;;;22.63;32.08
71149;BME280;59072;42.144;25.200;2022-09-23T11:07:38;100219.53;;;22.38;31.46
71149;BME280;59072;42.144;25.200;2022-09-23T11:27:52;100186.78;;;22.30;31.55
71149;BME280;59072;42.144;25.200;2022-09-23T11:30:30;100201.72;;;22.65;31.35
71149;BME280;59072;42.144;25.200;2022-09-23T11:36:16;100195.09;;;22.71;30.15
71149;BME280;59072;42.144;25.200;2022-09-23T11:38:47;100182.09;;;23.01;28.88
71149;BME280;59072;42.144;25.200;2022-09-23T11:41:36;100183.72;;;24.13;28.11
71149;BME280;59072;42.144;25.200;2022-09-23T11:44:17;100181.22;;;24.53;26.37
71149;BME280;59072;42.144;25.200;2022-09-23T11:46:52;100165.44;;;24.95;26.46
71149;BME280;59072;42.144;25.200;2022-09-23T11:49:36;100172.16;;;24.66;27.86
71149;BME280;59072;42.144;25.200;2022-09-23T11:52:11;100172.84;;;24.72;25.79
71149;BME280;59072;42.144;25.200;2022-09-23T11:57:46;100162.03;;;25.60;24.81
71149;BME280;59072;42.144;25.200;2022-09-23T12:00:21;100158.91;;;26.02;27.42
71149;BME280;59072;42.144;25.200;2022-09-23T12:05:22;100137.81;;;25.85;25.15
71149;BME280;59072;42.144;25.200;2022-09-23T12:08:06;100166.34;;;25.44;24.96
71149;BME280;59072;42.144;25.200;2022-09-23T12:10:47;100154.84;;;25.82;26.10
71149;BME280;59072;42.144;25.200;2022-09-23T12:16:16;100164.69;;;25.34;25.15
71149;BME280;59072;42.144;25.200;2022-09-23T12:27:27;100163.97;;;24.66;25.53
71149;BME280;59072;42.144;25.200;2022-09-23T12:29:58;100163.34;;;24.10;26.37
71149;BME280;59072;42.144;25.200;2022-09-23T12:32:26;100154.75;;;23.66;26.86
71149;BME280;59072;42.144;25.200;2022-09-23T12:34:52;100153.38;;;24.42;25.63
71149;BME280;59072;42.144;25.200;2022-09-23T12:37:34;100158.69;;;24.70;24.82
71149;BME280;59072;42.144;25.200;2022-09-23T12:40:20;100165.13;;;24.96;26.09
71149;BME280;59072;42.144;25.200;2022-09-23T12:42:47;100157.16;;;23.26;30.77
71149;BME280;59072;42.144;25.200;2022-09-23T12:45:31;100158.91;;;22.90;31.57
71149;BME280;59072;42.144;25.200;2022-09-23T12:51:11;100146.41;;;23.77;30.20
71149;BME280;59072;42.144;25.200;2022-09-23T12:53:54;100153.94;;;24.53;29.69
71149;BME280;59072;42.144;25.200;2022-09-23T13:01:19;100153.16;;;23.38;33.80
71149;BME280;59072;42.144;25.200;2022-09-23T13:03:55;100143.53;;;22.33;31.69
71149;BME280;59072;42.144;25.200;2022-09-23T13:06:42;100149.38;;;21.59;32.60
71149;BME280;59072;42.144;25.200;2022-09-23T13:09:17;100135.56;;;21.80;33.14
71149;BME280;59072;42.144;25.200;2022-09-23T13:11:44;100149.63;;;21.15;33.21
71149;BME280;59072;42.144;25.200;2022-09-23T13:14:14;100147.94;;;20.90;33.83
71149;BME280;59072;42.144;25.200;2022-09-23T13:16:44;100153.66;;;21.17;32.85
71149;BME280;59072;42.144;25.200;2022-09-23T13:29:45;100168.53;;;20.17;34.64
71149;BME280;59072;42.144;25.200;2022-09-23T13:32:13;100168.69;;;20.31;34.82
71149;BME280;59072;42.144;25.200;2022-09-23T13:34:43;100150.78;;;20.40;35.35
71149;BME280;59072;42.144;25.200;2022-09-23T13:37:20;100152.19;;;20.32;34.72
71149;BME280;59072;42.144;25.200;2022-09-23T13:39:45;100168.19;;;20.28;35.09
71149;BME280;59072;42.144;25.200;2022-09-23T13:42:26;100157.47;;;20.08;36.03
71149;BME280;59072;42.144;25.200;2022-09-23T13:44:54;100129.81;;;19.72;36.64
71149;BME280;59072;42.144;25.200;2022-09-23T13:47:23;100139.00;;;19.76;37.03
71149;BME280;59072;42.144;25.200;2022-09-23T13:49:50;100139.00;;;19.71;37.45
71149;BME280;59072;42.144;25.200;2022-09-23T13:52:27;100150.75;;;21.33;33.47
71149;BME280;59072;42.144;25.200;2022-09-23T13:54:54;100155.25;;;22.29;32.11
71149;BME280;59072;42.144;25.200;2022-09-23T13:57:31;100155.16;;;23.18;30.17
71149;BME280;59072;42.144;25.200;2022-09-23T14:00:16;100155.69;;;24.12;27.95
71149;BME280;59072;42.144;25.200;2022-09-23T14:02:42;100160.84;;;25.13;27.69
71149;BME280;59072;42.144;25.200;2022-09-23T14:05:12;100160.50;;;25.94;26.26
71149;BME280;59072;42.144;25.200;2022-09-23T14:07:46;100151.31;;;23.75;28.61
71149;BME280;59072;42.144;25.200;2022-09-23T14:10:16;100155.41;;;21.56;31.33
71149;BME280;59072;42.144;25.200;2022-09-23T14:12:43;100153.66;;;21.17;33.15
71149;BME280;59072;42.144;25.200;2022-09-23T14:15:13;100164.72;;;20.92;33.55
71149;BME280;59072;42.144;25.200;2022-09-23T14:17:44;100143.03;;;20.62;33.81
71149;BME280;59072;42.144;25.200;2022-09-23T14:20:15;100141.72;;;20.55;34.03
71149;BME280;59072;42.144;25.200;2022-09-23T14:22:41;100153.13;;;20.52;35.90
71149;BME280;59072;42.144;25.200;2022-09-23T14:25:16;100163.84;;;20.72;33.78
71149;BME280;59072;42.144;25.200;2022-09-23T14:27:43;100154.13;;;20.66;34.01
71149;BME280;59072;42.144;25.200;2022-09-23T14:30:16;100166.41;;;20.87;33.81
71149;BME280;59072;42.144;25.200;2022-09-23T14:32:43;100152.84;;;20.87;33.43
71149;BME280;59072;42.144;25.200;2022-09-23T14:35:23;100163.56;;;21.03;35.37
71149;BME280;59072;42.144;25.200;2022-09-23T14:37:55;100161.78;;;20.88;36.40
71149;BME280;59072;42.144;25.200;2022-09-23T14:40:54;100150.28;;;20.72;33.96
71149;BME280;59072;42.144;25.200;2022-09-23T14:44:13;100149.31;;;20.53;35.83
71149;BME280;59072;42.144;25.200;2022-09-23T14:46:33;100156.38;;;20.54;35.82
71149;BME280;59072;42.144;25.200;2022-09-23T14:49:06;100165.03;;;20.56;36.78
71149;BME280;59072;42.144;25.200;2022-09-23T14:51:53;100167.22;;;20.54;37.42
71149;BME280;59072;42.144;25.200;2022-09-23T14:54:33;100186.19;;;20.48;37.26
71149;BME280;59072;42.144;25.200;2022-09-23T14:57:01;100183.56;;;20.38;37.52
71149;BME280;59072;42.144;25.200;2022-09-23T14:59:34;100178.91;;;22.47;34.35
71149;BME280;59072;42.144;25.200;2022-09-23T15:02:22;100188.91;;;25.76;29.99
71149;BME280;59072;42.144;25.200;2022-09-23T15:04:47;100182.56;;;27.71;27.38
71149;BME280;59072;42.144;25.200;2022-09-23T15:07:17;100185.28;;;28.00;26.56
71149;BME280;59072;42.144;25.200;2022-09-23T15:09:43;100199.09;;;29.00;24.44
71149;BME280;59072;42.144;25.200;2022-09-23T15:12:14;100200.22;;;29.82;23.18
71149;BME280;59072;42.144;25.200;2022-09-23T15:14:42;100205.69;;;29.33;23.38
71149;BME280;59072;42.144;25.200;2022-09-23T15:17:33;100198.13;;;29.91;21.91
71149;BME280;59072;42.144;25.200;2022-09-23T15:20:06;100193.69;;;29.50;22.71
71149;BME280;59072;42.144;25.200;2022-09-23T15:22:45;100193.50;;;28.42;23.83